This is the latest recevied weather packets stored in our database for station/object LRCK. If no packets are shown the sender has not sent any weather packets the latest 10 day(s).
| Time | Temp. | Humidity | Pressure | Rain* | Wind** | Luminosity | Snow |
|---|---|---|---|---|---|---|---|
| 1777974498 | 18.89° C | 37% | 1016 hPa | - | - | - | - |
| 1777973597 | 18.89° C | 37% | 1016 hPa | - | - | - | - |
| 1777972697 | 18.89° C | 43% | 1016 hPa | - | - | - | - |
| 1777971797 | 18.89° C | 43% | 1016 hPa | - | - | - | - |
| 1777970897 | 17.78° C | 40% | 1016 hPa | - | - | - | - |
| 1777969998 | 17.78° C | 40% | 1016 hPa | - | - | - | - |
| 1777969098 | 17.78° C | 46% | 1016 hPa | - | - | - | - |
| 1777968197 | 17.78° C | 46% | 1016 hPa | - | - | - | - |
| 1777967313 | 17.22° C | 45% | 1016 hPa | - | - | - | - |
| 1777966397 | 17.22° C | 45% | 1016 hPa | - | - | - | - |
| 1777965497 | 17.22° C | 45% | 1016 hPa | - | - | - | - |
| 1777964597 | 17.22° C | 45% | 1016 hPa | - | - | - | - |
| 1777963697 | 17.22° C | 42% | 1016 hPa | - | - | - | - |
| 1777962798 | 17.22° C | 42% | 1016 hPa | - | - | - | - |
| 1777961897 | 16.11° C | 42% | 1016 hPa | - | - | - | - |
| 1777960997 | 16.11° C | 42% | 1016 hPa | - | - | - | - |
| 1777960097 | 13.89° C | 59% | 1016 hPa | - | - | - | - |
| 1777959198 | 13.89° C | 59% | 1016 hPa | - | - | - | - |
| 1777958297 | 12.22° C | 58% | 1016 hPa | - | - | - | - |
| 1777957397 | 12.22° C | 58% | 1016 hPa | - | - | - | - |
| 1777956497 | 8.89° C | 66% | 1015 hPa | - | - | - | - |
| 1777955597 | 8.89° C | 66% | 1015 hPa | - | - | - | - |
| 1777954697 | 6.11° C | 81% | 1015 hPa | - | - | - | - |
| 1777953797 | 6.11° C | 81% | 1015 hPa | - | - | - | - |
| 1777952897 | 5° C | 76% | 1015 hPa | - | - | - | - |
* Rain since midnight (hover to see other rain measurements)
** Current wind speed in m/s (hover to see current wind gust speed)